Time;durP1;ratioP1;P1;durP2;ratioP2;P2;SDS_P1;SDS_P2;PMS_P1;PMS_P2;Temp;Humidity;BMP_temperature;BMP_pressure;BME280_temperature;BME280_humidity;BME280_pressure;Samples;Min_cycle;Max_cycle;Signal;HPM_P1;HPM_P2
2023/04/27 00:00:46;;;;;;;3.47;2.10;;;9.00;90.10;;;;;;4946358;28;20030;-83
2023/04/27 00:03:12;;;;;;;3.70;2.03;;;8.90;90.10;;;;;;4913599;28;20253;-82
2023/04/27 00:05:38;;;;;;;3.90;2.10;;;8.90;90.10;;;;;;4940467;28;20026;-82
2023/04/27 00:08:04;;;;;;;3.80;2.03;;;8.80;90.20;;;;;;4925802;28;20103;-82
2023/04/27 00:10:30;;;;;;;5.00;2.10;;;8.80;90.50;;;;;;4953665;28;20053;-82
2023/04/27 00:12:56;;;;;;;3.43;2.03;;;8.80;90.20;;;;;;4946008;28;20022;-83
2023/04/27 00:15:22;;;;;;;4.55;2.00;;;8.70;90.20;;;;;;4947078;28;20241;-82
2023/04/27 00:17:48;;;;;;;3.80;1.90;;;8.70;90.30;;;;;;4933303;28;20030;-83
2023/04/27 00:20:13;;;;;;;4.73;2.00;;;8.70;90.40;;;;;;4950906;28;20215;-81
2023/04/27 00:22:40;;;;;;;3.65;2.15;;;8.60;90.40;;;;;;4938025;28;20102;-81
2023/04/27 00:25:06;;;;;;;4.18;2.03;;;8.60;90.40;;;;;;4911652;28;20381;-82
2023/04/27 00:27:32;;;;;;;4.82;2.17;;;8.60;90.40;;;;;;4950161;28;20031;-81
2023/04/27 00:29:58;;;;;;;4.13;2.10;;;8.50;90.50;;;;;;4946452;28;20037;-83
2023/04/27 00:32:24;;;;;;;4.22;2.45;;;8.50;90.50;;;;;;4933595;28;20076;-83
2023/04/27 00:34:49;;;;;;;4.33;2.20;;;8.40;90.50;;;;;;4950141;28;20188;-81
2023/04/27 00:37:15;;;;;;;4.75;2.05;;;8.50;90.60;;;;;;4945683;28;20085;-83
2023/04/27 00:39:41;;;;;;;3.97;2.20;;;8.40;90.70;;;;;;4947740;28;20237;-81
2023/04/27 00:42:10;;;;;;;4.77;2.33;;;8.40;90.70;;;;;;4934201;28;20302;-83
2023/04/27 00:44:36;;;;;;;3.58;2.10;;;8.40;90.80;;;;;;4937972;28;20031;-81
2023/04/27 00:47:02;;;;;;;3.40;1.80;;;8.30;90.70;;;;;;4935217;28;20023;-83
2023/04/27 00:49:28;;;;;;;3.88;2.22;;;8.30;90.80;;;;;;4933613;28;20378;-81
2023/04/27 00:51:55;;;;;;;4.75;2.42;;;8.30;90.80;;;;;;4948405;28;20031;-82
2023/04/27 00:54:21;;;;;;;4.35;2.47;;;8.30;90.70;;;;;;4931565;28;20400;-83
2023/04/27 00:56:49;;;;;;;4.60;2.30;;;8.20;90.80;;;;;;4955008;28;20446;-81
2023/04/27 00:59:16;;;;;;;4.25;2.38;;;8.20;90.80;;;;;;4911186;28;20569;-83
2023/04/27 01:01:42;;;;;;;4.30;2.30;;;8.20;90.80;;;;;;4918327;28;20031;-81
2023/04/27 01:04:08;;;;;;;3.85;2.25;;;8.20;90.80;;;;;;4918129;28;20389;-83
2023/04/27 01:06:33;;;;;;;4.23;2.43;;;8.10;90.90;;;;;;4928008;28;20140;-81
2023/04/27 01:08:59;;;;;;;4.68;2.28;;;8.10;90.90;;;;;;4953607;28;20049;-82
2023/04/27 01:11:25;;;;;;;4.97;2.60;;;8.10;90.90;;;;;;4941156;28;20073;-81
2023/04/27 01:13:52;;;;;;;4.50;2.58;;;8.10;90.90;;;;;;4945533;28;20081;-81
2023/04/27 01:16:18;;;;;;;3.83;2.33;;;8.10;91.00;;;;;;4930053;28;20045;-83
2023/04/27 01:18:45;;;;;;;4.05;2.10;;;8.00;91.00;;;;;;4923643;28;20030;-82
2023/04/27 01:21:11;;;;;;;4.60;2.20;;;8.00;91.00;;;;;;4960395;28;20045;-83
2023/04/27 01:23:37;;;;;;;4.90;2.30;;;8.00;91.00;;;;;;4947025;28;20102;-82
2023/04/27 01:26:03;;;;;;;4.37;2.30;;;8.00;91.00;;;;;;4958571;28;20030;-82
2023/04/27 01:28:29;;;;;;;4.53;2.47;;;7.90;91.00;;;;;;4946718;28;20396;-82
2023/04/27 01:30:54;;;;;;;4.63;2.30;;;7.90;91.10;;;;;;4948970;28;20440;-82
2023/04/27 01:33:21;;;;;;;4.15;2.15;;;7.90;91.10;;;;;;4946332;28;20031;-83
2023/04/27 01:35:47;;;;;;;5.70;2.15;;;7.90;91.10;;;;;;4934381;28;20038;-81
2023/04/27 01:38:12;;;;;;;4.63;2.40;;;7.80;91.10;;;;;;4943710;28;20306;-83
2023/04/27 01:40:38;;;;;;;4.30;2.58;;;7.80;91.10;;;;;;4943503;28;20508;-81
2023/04/27 01:43:04;;;;;;;3.80;2.03;;;7.80;91.10;;;;;;4954968;28;20027;-81
2023/04/27 01:45:30;;;;;;;5.40;2.50;;;7.80;91.10;;;;;;4939694;28;20023;-81
2023/04/27 01:47:56;;;;;;;4.88;2.20;;;7.80;91.20;;;;;;4932495;28;20450;-81
2023/04/27 01:50:22;;;;;;;4.40;2.27;;;7.70;91.10;;;;;;4925031;28;20603;-84
2023/04/27 01:52:47;;;;;;;4.22;2.25;;;7.70;91.20;;;;;;4956690;28;20610;-82
2023/04/27 01:55:13;;;;;;;5.47;2.43;;;7.70;91.20;;;;;;4946056;28;20448;-83
2023/04/27 01:57:39;;;;;;;5.13;2.50;;;7.60;91.20;;;;;;4943945;28;20541;-81
2023/04/27 02:00:05;;;;;;;4.10;2.25;;;7.60;91.20;;;;;;4922948;28;20869;-82
2023/04/27 02:02:32;;;;;;;3.73;2.20;;;7.60;91.20;;;;;;4925971;28;20031;-81
2023/04/27 02:04:57;;;;;;;4.20;2.50;;;7.60;91.20;;;;;;4944221;28;20029;-81
2023/04/27 02:07:23;;;;;;;5.28;2.60;;;7.60;91.20;;;;;;4929160;28;20023;-83
2023/04/27 02:09:49;;;;;;;4.53;2.20;;;7.50;91.20;;;;;;4927848;28;20074;-82
2023/04/27 02:12:14;;;;;;;3.93;2.17;;;7.60;91.30;;;;;;4940824;28;20042;-83
2023/04/27 02:14:40;;;;;;;3.95;2.20;;;7.50;91.30;;;;;;4937105;28;20693;-81
2023/04/27 02:17:06;;;;;;;4.35;2.45;;;7.50;91.30;;;;;;4933085;28;20316;-83
2023/04/27 02:19:32;;;;;;;4.63;2.20;;;7.40;91.30;;;;;;4929579;28;20250;-81
2023/04/27 02:21:58;;;;;;;4.45;2.20;;;7.40;91.30;;;;;;4924513;28;20023;-82
2023/04/27 02:24:24;;;;;;;4.18;2.35;;;7.40;91.40;;;;;;4950951;28;20039;-83
2023/04/27 02:26:49;;;;;;;5.00;2.43;;;7.40;91.40;;;;;;4953649;28;20030;-81
2023/04/27 02:29:15;;;;;;;5.18;2.40;;;7.30;91.40;;;;;;4937848;28;20105;-83
2023/04/27 02:31:41;;;;;;;4.70;2.60;;;7.30;91.50;;;;;;4941389;28;20354;-82
2023/04/27 02:34:07;;;;;;;6.05;2.90;;;7.30;91.50;;;;;;4949656;28;20058;-83
2023/04/27 02:36:33;;;;;;;4.30;2.20;;;7.20;91.50;;;;;;4942409;28;20300;-83
2023/04/27 02:38:58;;;;;;;4.83;2.53;;;7.20;91.50;;;;;;4924972;28;20196;-82
2023/04/27 02:41:27;;;;;;;4.30;2.30;;;7.20;91.60;;;;;;4926077;28;20131;-82
2023/04/27 02:43:53;;;;;;;4.07;2.27;;;7.20;91.70;;;;;;4935842;28;20305;-82
2023/04/27 02:46:19;;;;;;;3.85;2.20;;;7.10;91.70;;;;;;4952659;28;20209;-82
2023/04/27 02:48:44;;;;;;;4.35;2.33;;;7.10;91.70;;;;;;4918239;28;20637;-83
2023/04/27 02:51:10;;;;;;;4.20;2.13;;;7.10;91.70;;;;;;4953646;28;20376;-82
2023/04/27 02:53:36;;;;;;;4.93;2.28;;;7.10;92.10;;;;;;4922608;28;20039;-83
2023/04/27 02:56:02;;;;;;;5.30;2.47;;;7.10;91.80;;;;;;4950161;28;20460;-82
2023/04/27 02:58:27;;;;;;;4.35;2.35;;;7.00;91.70;;;;;;4924440;28;20563;-81
2023/04/27 03:00:56;;;;;;;4.97;2.20;;;7.00;91.70;;;;;;4950720;28;20677;-81
2023/04/27 03:03:25;;;;;;;5.25;2.40;;;7.00;92.00;;;;;;4929257;28;20062;-81
2023/04/27 03:05:51;;;;;;;4.80;2.50;;;7.00;91.70;;;;;;4948775;28;20061;-82
2023/04/27 03:08:17;;;;;;;3.67;2.30;;;6.90;91.70;;;;;;4907603;28;20031;-81
2023/04/27 03:10:42;;;;;;;6.50;2.28;;;7.00;91.80;;;;;;4931203;28;20039;-83
2023/04/27 03:13:08;;;;;;;4.43;2.30;;;6.90;91.80;;;;;;4935015;28;20549;-82
2023/04/27 03:15:34;;;;;;;4.77;2.60;;;6.90;91.80;;;;;;4934202;28;20043;-83
2023/04/27 03:18:00;;;;;;;5.10;2.20;;;6.90;92.10;;;;;;4922323;28;20051;-82
2023/04/27 03:20:25;;;;;;;4.88;2.28;;;6.80;92.10;;;;;;4928019;28;20040;-83
2023/04/27 03:22:51;;;;;;;4.20;2.33;;;6.80;91.80;;;;;;4933257;28;20029;-82
2023/04/27 03:25:17;;;;;;;4.33;2.20;;;6.80;91.80;;;;;;4915301;28;20040;-83
2023/04/27 03:27:43;;;;;;;5.55;2.40;;;6.70;91.80;;;;;;4925323;28;20051;-82
2023/04/27 03:30:09;;;;;;;4.63;2.13;;;6.80;91.90;;;;;;4938668;28;20055;-83
2023/04/27 03:32:35;;;;;;;5.28;2.45;;;6.70;91.90;;;;;;4913155;28;20257;-82
2023/04/27 03:35:01;;;;;;;4.85;2.40;;;6.60;91.90;;;;;;4925287;28;20031;-82
2023/04/27 03:37:27;;;;;;;4.97;2.67;;;6.60;91.90;;;;;;4920471;29;20134;-82
2023/04/27 03:39:53;;;;;;;4.97;2.50;;;6.60;91.90;;;;;;4919412;28;20031;-81
2023/04/27 03:42:21;;;;;;;4.75;2.45;;;6.60;91.90;;;;;;4932105;28;20489;-83
2023/04/27 03:44:46;;;;;;;5.37;2.50;;;6.50;91.90;;;;;;4935423;28;20098;-81
2023/04/27 03:47:12;;;;;;;4.40;2.40;;;6.50;91.90;;;;;;4920039;28;20050;-83
2023/04/27 03:49:38;;;;;;;4.23;2.33;;;6.50;91.90;;;;;;4915945;28;20260;-81
2023/04/27 03:52:05;;;;;;;4.18;2.40;;;6.50;92.00;;;;;;4921535;28;20043;-82
2023/04/27 03:54:31;;;;;;;5.40;2.65;;;6.40;92.00;;;;;;4932978;28;20019;-81
2023/04/27 03:56:56;;;;;;;5.47;2.60;;;6.40;92.00;;;;;;4918293;28;20445;-82
2023/04/27 03:59:22;;;;;;;4.82;2.47;;;6.40;92.00;;;;;;4919879;29;20461;-83
2023/04/27 04:01:47;;;;;;;5.17;2.67;;;6.40;92.10;;;;;;4931393;28;20553;-82
2023/04/27 04:04:13;;;;;;;5.50;2.50;;;6.30;92.10;;;;;;4940392;28;20630;-83
2023/04/27 04:06:39;;;;;;;6.03;2.72;;;6.30;92.10;;;;;;4929594;28;20656;-82
2023/04/27 04:09:05;;;;;;;5.17;2.47;;;6.30;92.10;;;;;;4941623;28;20424;-81
2023/04/27 04:11:31;;;;;;;4.80;2.50;;;6.30;92.10;;;;;;4918539;28;20717;-81
2023/04/27 04:13:57;;;;;;;4.70;2.20;;;6.20;92.20;;;;;;4940333;28;20018;-82
2023/04/27 04:16:22;;;;;;;5.90;2.47;;;6.20;92.20;;;;;;4951034;28;20039;-83
2023/04/27 04:18:48;;;;;;;4.88;2.38;;;6.20;92.20;;;;;;4923500;28;20023;-81
2023/04/27 04:21:14;;;;;;;5.33;2.30;;;6.20;92.40;;;;;;4944315;28;20046;-83
2023/04/27 04:23:40;;;;;;;4.70;2.50;;;6.10;92.20;;;;;;4940738;28;20234;-81
2023/04/27 04:26:07;;;;;;;4.45;2.25;;;6.20;92.30;;;;;;4927388;28;20085;-81
2023/04/27 04:28:33;;;;;;;4.93;2.40;;;6.10;92.30;;;;;;4917105;28;20024;-82
2023/04/27 04:31:04;;;;;;;5.07;2.42;;;6.10;92.30;;;;;;4940722;28;20027;-82
2023/04/27 04:33:30;;;;;;;5.45;2.40;;;6.10;92.30;;;;;;4948358;28;20058;-82
2023/04/27 04:35:57;;;;;;;6.43;3.10;;;6.10;92.30;;;;;;4927117;28;20019;-81
2023/04/27 04:38:23;;;;;;;7.88;2.90;;;6.10;92.40;;;;;;4936861;28;20080;-83
2023/04/27 04:40:50;;;;;;;5.70;2.90;;;6.10;92.50;;;;;;4939557;28;20031;-82
2023/04/27 04:43:15;;;;;;;5.40;2.58;;;6.00;92.50;;;;;;4932645;28;20055;-83
2023/04/27 04:45:42;;;;;;;5.60;2.87;;;6.10;92.60;;;;;;4945683;28;20377;-81
2023/04/27 04:48:09;;;;;;;5.15;2.90;;;6.10;92.70;;;;;;4949876;28;20412;-83
2023/04/27 04:50:34;;;;;;;7.07;3.30;;;6.10;92.70;;;;;;4929551;28;20647;-81
2023/04/27 04:53:00;;;;;;;6.57;3.05;;;6.10;92.80;;;;;;4934244;28;20213;-81
2023/04/27 04:55:28;;;;;;;6.40;3.47;;;6.10;92.80;;;;;;4920621;28;20035;-84
2023/04/27 04:57:54;;;;;;;7.07;3.30;;;6.10;92.80;;;;;;4956178;28;20123;-81
2023/04/27 05:00:21;;;;;;;6.30;3.50;;;6.10;92.90;;;;;;4934735;28;20030;-83
2023/04/27 05:02:46;;;;;;;8.15;3.70;;;6.10;92.90;;;;;;4938437;28;20081;-83
2023/04/27 05:05:12;;;;;;;6.43;3.42;;;6.20;93.00;;;;;;4951706;28;20023;-81
2023/04/27 05:07:38;;;;;;;6.17;3.20;;;6.20;93.00;;;;;;4930636;28;20039;-83
2023/04/27 05:10:04;;;;;;;6.70;3.13;;;6.20;93.10;;;;;;4927261;28;20260;-81
2023/04/27 05:12:30;;;;;;;5.30;3.00;;;6.20;93.10;;;;;;4957315;28;20301;-83
2023/04/27 05:14:56;;;;;;;5.43;2.92;;;6.30;93.20;;;;;;4938109;28;20617;-82
2023/04/27 05:17:21;;;;;;;7.33;2.77;;;6.20;93.20;;;;;;4928670;28;20031;-81
2023/04/27 05:19:47;;;;;;;5.38;2.63;;;6.30;93.30;;;;;;4943461;28;20023;-83
2023/04/27 05:22:13;;;;;;;6.00;2.67;;;6.40;93.40;;;;;;4942345;28;20685;-81
2023/04/27 05:24:38;;;;;;;5.82;2.97;;;6.40;93.40;;;;;;4914259;28;20489;-82
2023/04/27 05:27:04;;;;;;;4.73;2.50;;;6.50;93.50;;;;;;4943364;28;20110;-83
2023/04/27 05:29:30;;;;;;;5.35;2.70;;;6.40;93.50;;;;;;4931056;28;20492;-82
2023/04/27 05:31:56;;;;;;;6.03;2.80;;;6.50;93.50;;;;;;4956888;28;20022;-83
2023/04/27 05:34:21;;;;;;;5.28;2.60;;;6.50;93.60;;;;;;4956403;28;20484;-82
2023/04/27 05:36:47;;;;;;;5.30;2.60;;;6.60;93.70;;;;;;4939501;28;20102;-81
2023/04/27 05:39:13;;;;;;;4.90;2.47;;;6.60;93.80;;;;;;4905989;28;20086;-81
2023/04/27 05:41:39;;;;;;;5.05;2.70;;;6.70;93.90;;;;;;4955127;28;20034;-80
2023/04/27 05:44:05;;;;;;;5.90;2.90;;;6.70;93.90;;;;;;4928925;28;20027;-83
2023/04/27 05:46:32;;;;;;;6.13;3.08;;;6.70;94.00;;;;;;4934709;28;20342;-81
2023/04/27 05:48:58;;;;;;;4.97;2.55;;;6.80;94.10;;;;;;4939840;28;20047;-84
2023/04/27 05:51:23;;;;;;;5.43;2.80;;;6.90;94.20;;;;;;4941683;28;20159;-81
2023/04/27 05:53:49;;;;;;;5.10;2.80;;;6.90;94.30;;;;;;4919160;28;20023;-81
2023/04/27 05:56:15;;;;;;;5.13;2.72;;;7.00;94.40;;;;;;4947732;28;20173;-81
2023/04/27 05:58:41;;;;;;;6.15;3.13;;;7.10;94.50;;;;;;4938681;28;20039;-80
2023/04/27 06:01:07;;;;;;;6.53;3.10;;;7.20;94.60;;;;;;4931917;28;20019;-82
2023/04/27 06:03:32;;;;;;;5.07;2.90;;;7.30;94.70;;;;;;4948747;28;20023;-80
2023/04/27 06:05:59;;;;;;;4.93;3.05;;;7.40;94.70;;;;;;4920744;28;20035;-82
2023/04/27 06:08:26;;;;;;;6.23;3.20;;;7.50;94.90;;;;;;4915097;28;20576;-88
2023/04/27 06:10:53;;;;;;;5.43;2.88;;;7.50;94.90;;;;;;4930531;28;20159;-86
2023/04/27 06:13:19;;;;;;;6.03;3.10;;;7.60;95.00;;;;;;4922746;28;20035;-87
2023/04/27 06:15:45;;;;;;;5.65;2.97;;;7.70;95.10;;;;;;4934948;28;20031;-89
2023/04/27 06:18:11;;;;;;;5.87;3.20;;;7.80;95.10;;;;;;4913707;28;20043;-85
2023/04/27 06:20:37;;;;;;;7.65;3.60;;;7.90;95.10;;;;;;4937256;28;20016;-87
2023/04/27 06:23:03;;;;;;;5.85;3.38;;;8.00;95.20;;;;;;4932170;28;20547;-84
2023/04/27 06:25:28;;;;;;;5.07;2.87;;;8.10;95.30;;;;;;4906880;29;20678;-86
2023/04/27 06:27:55;;;;;;;5.63;3.40;;;8.20;95.40;;;;;;4935523;28;20508;-85
2023/04/27 06:30:21;;;;;;;6.63;3.13;;;8.30;95.60;;;;;;4933502;28;20558;-85
2023/04/27 06:32:47;;;;;;;5.90;3.30;;;8.50;95.70;;;;;;4932362;28;20602;-89
2023/04/27 06:35:13;;;;;;;6.40;3.55;;;8.60;95.70;;;;;;4919245;29;20667;-87
2023/04/27 06:37:39;;;;;;;5.40;2.97;;;8.70;95.70;;;;;;4932162;28;20035;-85
2023/04/27 06:40:06;;;;;;;6.40;3.22;;;8.90;95.80;;;;;;4916055;28;20027;-84
2023/04/27 06:42:32;;;;;;;6.85;3.45;;;8.90;95.70;;;;;;4929174;28;20023;-85
2023/04/27 06:44:57;;;;;;;6.30;3.40;;;9.10;95.80;;;;;;4926636;28;20349;-85
2023/04/27 06:47:23;;;;;;;6.13;3.25;;;9.20;95.90;;;;;;4913253;28;20166;-87
2023/04/27 06:49:49;;;;;;;6.37;3.53;;;9.30;96.00;;;;;;4925373;28;20063;-87
2023/04/27 06:52:15;;;;;;;6.00;3.30;;;9.40;96.00;;;;;;4920505;28;20024;-87
2023/04/27 06:54:41;;;;;;;5.95;3.40;;;9.50;96.10;;;;;;4936672;28;20027;-84
2023/04/27 06:57:07;;;;;;;5.88;3.25;;;9.60;96.30;;;;;;4909062;28;20781;-84
2023/04/27 06:59:33;;;;;;;6.70;3.10;;;9.80;96.50;;;;;;4938572;28;20033;-89
2023/04/27 07:01:59;;;;;;;5.72;2.97;;;10.00;96.60;;;;;;4910447;28;20028;-86
2023/04/27 07:04:26;;;;;;;5.03;3.15;;;10.10;96.60;;;;;;4929697;28;20325;-88
2023/04/27 07:06:51;;;;;;;5.40;3.08;;;10.30;96.70;;;;;;4948939;28;20070;-89
2023/04/27 07:09:17;;;;;;;6.03;3.40;;;10.50;97.00;;;;;;4919349;28;20390;-87
2023/04/27 07:11:43;;;;;;;7.22;3.60;;;10.60;97.20;;;;;;4910329;29;20029;-88
2023/04/27 07:14:09;;;;;;;6.38;3.80;;;10.80;97.50;;;;;;4934077;28;20027;-84
2023/04/27 07:16:35;;;;;;;6.63;3.70;;;11.00;97.00;;;;;;4917935;29;20049;-90
2023/04/27 07:19:01;;;;;;;6.78;3.50;;;11.20;97.10;;;;;;4912904;28;20508;-85
2023/04/27 07:21:27;;;;;;;5.75;3.10;;;11.40;97.10;;;;;;4930831;28;20019;-89
2023/04/27 07:23:53;;;;;;;6.95;3.60;;;11.50;97.30;;;;;;4941292;28;20432;-83
2023/04/27 07:26:20;;;;;;;6.50;3.53;;;11.70;97.10;;;;;;4925119;28;20916;-87
2023/04/27 07:28:46;;;;;;;6.40;3.90;;;11.80;97.10;;;;;;4937389;28;20045;-87
2023/04/27 07:31:13;;;;;;;6.82;3.65;;;11.90;97.00;;;;;;4932294;28;20032;-88
2023/04/27 07:33:38;;;;;;;6.10;3.70;;;12.10;97.10;;;;;;4896813;28;20378;-89
2023/04/27 07:36:06;;;;;;;8.07;3.90;;;12.20;97.00;;;;;;4927283;28;20041;-84
2023/04/27 07:38:31;;;;;;;6.65;4.03;;;12.30;97.00;;;;;;4942750;28;20484;-86
2023/04/27 07:41:00;;;;;;;7.28;3.92;;;12.50;96.90;;;;;;4931991;28;20347;-85
2023/04/27 07:43:26;;;;;;;7.80;3.90;;;12.60;96.80;;;;;;4920247;28;20281;-84
2023/04/27 07:45:53;;;;;;;7.60;4.05;;;12.70;96.90;;;;;;4937406;28;20049;-86
2023/04/27 07:48:19;;;;;;;7.53;3.83;;;12.90;97.20;;;;;;4907221;28;20721;-89
2023/04/27 07:50:45;;;;;;;8.80;4.30;;;13.00;97.70;;;;;;4944113;28;20113;-89
2023/04/27 07:53:11;;;;;;;7.30;4.13;;;13.20;98.10;;;;;;4918657;29;20035;-87
2023/04/27 07:55:37;;;;;;;6.23;4.03;;;13.50;98.40;;;;;;4933240;28;20046;-88
2023/04/27 07:58:03;;;;;;;7.78;4.45;;;13.70;98.20;;;;;;4925855;28;20082;-85
2023/04/27 08:00:29;;;;;;;7.80;4.20;;;14.00;98.20;;;;;;4918191;28;20041;-86
2023/04/27 08:02:55;;;;;;;8.57;4.85;;;14.20;98.40;;;;;;4926460;28;20106;-85
2023/04/27 08:05:21;;;;;;;9.77;5.47;;;14.50;98.80;;;;;;4913968;28;20069;-86
2023/04/27 08:07:47;;;;;;;10.07;5.80;;;14.80;98.90;;;;;;4930717;28;20019;-84
2023/04/27 08:10:14;;;;;;;9.03;5.53;;;15.10;98.10;;;;;;4928584;28;20047;-87
2023/04/27 08:12:40;;;;;;;9.43;5.43;;;15.30;97.50;;;;;;4932301;28;20067;-87
2023/04/27 08:15:06;;;;;;;7.97;5.07;;;15.50;97.60;;;;;;4934670;28;20110;-84
2023/04/27 08:17:32;;;;;;;7.10;4.50;;;15.70;97.70;;;;;;4933944;28;20024;-88
2023/04/27 08:19:58;;;;;;;8.45;4.80;;;15.90;98.20;;;;;;4913167;28;20035;-83
2023/04/27 08:22:24;;;;;;;7.88;5.00;;;16.20;98.50;;;;;;4926290;28;20318;-86
2023/04/27 08:24:50;;;;;;;7.43;4.20;;;16.50;98.60;;;;;;4936917;28;20034;-88
2023/04/27 08:27:15;;;;;;;8.05;4.90;;;16.90;98.90;;;;;;4926044;28;20046;-86
2023/04/27 08:29:48;;;;;;;6.67;4.57;;;17.20;98.70;;;;;;4904781;29;20380;-90
2023/04/27 08:32:14;;;;;;;6.97;4.65;;;17.60;97.60;;;;;;4931339;28;20035;-89
2023/04/27 08:34:40;;;;;;;7.30;4.32;;;17.90;98.20;;;;;;4936206;28;20066;-87
2023/04/27 08:37:07;;;;;;;6.90;4.20;;;18.10;97.80;;;;;;4894115;28;20103;-82
2023/04/27 08:39:33;;;;;;;6.97;4.33;;;18.40;97.40;;;;;;4930119;28;20024;-87
2023/04/27 08:41:59;;;;;;;5.82;3.75;;;18.60;97.00;;;;;;4939379;28;20027;-84
2023/04/27 08:44:25;;;;;;;6.45;4.05;;;18.80;96.90;;;;;;4921124;28;20065;-86
2023/04/27 08:46:51;;;;;;;6.22;4.45;;;19.00;96.90;;;;;;4936470;28;21528;-85
2023/04/27 08:49:17;;;;;;;7.00;4.20;;;19.20;95.90;;;;;;4928187;28;20628;-86
2023/04/27 08:51:42;;;;;;;7.60;4.10;;;19.30;95.50;;;;;;4912460;28;20513;-86
2023/04/27 08:54:08;;;;;;;6.47;4.15;;;19.40;95.70;;;;;;4928748;28;20035;-83
2023/04/27 08:56:34;;;;;;;6.55;4.25;;;19.50;95.30;;;;;;4933137;28;20031;-88
2023/04/27 08:59:03;;;;;;;6.22;4.25;;;19.60;95.20;;;;;;4930561;28;20035;-83
2023/04/27 09:01:30;;;;;;;5.57;3.57;;;19.70;94.90;;;;;;4916963;28;20683;-86
2023/04/27 09:03:58;;;;;;;5.75;3.75;;;19.80;95.10;;;;;;4935215;28;20451;-83
2023/04/27 09:06:34;;;;;;;5.47;3.70;;;19.90;95.20;;;;;;4913795;28;20709;-87
2023/04/27 09:09:01;;;;;;;5.55;3.33;;;20.10;93.00;;;;;;4928397;28;20438;-85
2023/04/27 09:11:35;;;;;;;4.90;3.63;;;20.20;95.40;;;;;;4933611;28;20400;-85
2023/04/27 09:14:14;;;;;;;6.87;4.07;;;20.40;93.40;;;;;;4935082;28;20697;-84
2023/04/27 09:16:40;;;;;;;5.32;3.67;;;20.40;93.30;;;;;;4919714;28;20098;-89
2023/04/27 09:19:06;;;;;;;5.93;3.42;;;20.50;93.80;;;;;;4930530;28;20440;-85
2023/04/27 09:21:31;;;;;;;5.70;3.53;;;20.50;93.70;;;;;;4912758;28;20032;-85
2023/04/27 09:24:08;;;;;;;4.65;3.28;;;20.50;93.70;;;;;;4929070;28;20037;-85
2023/04/27 09:26:33;;;;;;;4.78;3.50;;;20.60;93.60;;;;;;4934972;28;20050;-89
2023/04/27 09:28:59;;;;;;;5.63;3.40;;;20.50;93.10;;;;;;4917083;29;20036;-86
2023/04/27 09:31:35;;;;;;;4.95;3.03;;;20.50;93.00;;;;;;4936489;28;20189;-87
2023/04/27 09:34:01;;;;;;;4.13;3.03;;;20.50;91.50;;;;;;4922898;28;20027;-85
2023/04/27 09:36:29;;;;;;;5.13;3.23;;;20.50;93.30;;;;;;4910869;28;21095;-83
2023/04/27 09:38:55;;;;;;;5.65;3.55;;;20.60;92.70;;;;;;4932585;28;20516;-85
2023/04/27 09:41:21;;;;;;;4.95;3.33;;;20.60;92.90;;;;;;4933680;28;20160;-84
2023/04/27 09:43:47;;;;;;;5.03;3.35;;;20.70;92.90;;;;;;4930678;28;20089;-86
2023/04/27 09:46:14;;;;;;;5.47;3.20;;;20.80;92.70;;;;;;4945212;28;20375;-83
2023/04/27 09:48:41;;;;;;;4.82;3.38;;;20.90;92.90;;;;;;4920515;28;20035;-85
2023/04/27 09:51:07;;;;;;;5.30;3.30;;;20.90;92.10;;;;;;4939717;28;20125;-83
2023/04/27 09:53:43;;;;;;;5.30;3.25;;;21.00;92.10;;;;;;4911360;28;20105;-87
2023/04/27 09:56:39;;;;;;;6.05;3.33;;;21.10;91.50;;;;;;4934666;28;20034;-84
2023/04/27 09:59:30;;;;;;;5.20;3.20;;;21.30;88.60;;;;;;4941985;28;20749;-81
2023/04/27 10:01:58;;;;;;;4.38;3.10;;;21.50;91.70;;;;;;4931409;28;20114;-80
2023/04/27 10:04:52;;;;;;;4.78;3.20;;;21.70;92.30;;;;;;4934014;28;20458;-81
2023/04/27 10:07:18;;;;;;;3.63;2.70;;;21.90;86.10;;;;;;4929532;28;20123;-82
2023/04/27 10:09:48;;;;;;;3.80;2.78;;;22.10;92.00;;;;;;4928874;28;20042;-80
2023/04/27 10:12:27;;;;;;;5.13;3.37;;;22.20;89.70;;;;;;4939429;28;20540;-82
2023/04/27 10:15:14;;;;;;;4.45;3.17;;;22.20;88.10;;;;;;4938908;28;20060;-83
2023/04/27 10:17:48;;;;;;;4.50;3.10;;;22.30;86.70;;;;;;4937881;28;20670;-81
2023/04/27 10:20:14;;;;;;;4.95;3.20;;;22.30;87.00;;;;;;4956548;28;20058;-82
2023/04/27 10:22:51;;;;;;;4.53;2.47;;;22.30;90.40;;;;;;4933831;28;20387;-82
2023/04/27 10:25:25;;;;;;;5.60;2.97;;;22.40;88.60;;;;;;4916653;28;20027;-81
2023/04/27 10:28:01;;;;;;;4.82;3.00;;;22.50;87.70;;;;;;4954644;28;20174;-83
2023/04/27 10:30:35;;;;;;;3.92;2.85;;;22.60;87.50;;;;;;4928157;28;20031;-83
2023/04/27 10:33:08;;;;;;;4.25;2.53;;;22.60;84.90;;;;;;4938820;28;20031;-82
2023/04/27 10:35:35;;;;;;;3.83;3.15;;;22.70;86.00;;;;;;4934477;28;20035;-82
2023/04/27 10:38:14;;;;;;;4.23;2.80;;;22.70;87.20;;;;;;4950028;28;20370;-81
2023/04/27 10:40:40;;;;;;;3.45;2.45;;;22.70;83.20;;;;;;4915994;28;20067;-82
2023/04/27 10:43:10;;;;;;;3.78;2.72;;;22.70;87.70;;;;;;4951928;28;20024;-81
2023/04/27 10:45:36;;;;;;;4.15;2.50;;;22.80;85.30;;;;;;4924565;28;20023;-80
2023/04/27 10:48:02;;;;;;;3.40;2.27;;;22.90;88.10;;;;;;4943965;28;20204;-82
2023/04/27 10:50:28;;;;;;;4.47;2.80;;;22.90;88.40;;;;;;4920738;28;20480;-83
2023/04/27 10:53:00;;;;;;;4.38;3.10;;;23.00;87.50;;;;;;4933105;28;20034;-81
2023/04/27 10:55:26;;;;;;;4.38;2.63;;;23.10;82.80;;;;;;4899355;28;20483;-81
2023/04/27 10:57:53;;;;;;;4.13;2.77;;;23.10;85.60;;;;;;4927688;28;20034;-81
2023/04/27 11:00:26;;;;;;;4.50;2.85;;;23.10;84.10;;;;;;4944310;28;20039;-82
2023/04/27 11:02:57;;;;;;;4.55;2.53;;;23.20;83.30;;;;;;4956337;28;20027;-83
2023/04/27 11:05:28;;;;;;;3.80;2.60;;;23.20;83.30;;;;;;4920491;28;20279;-80
2023/04/27 11:08:10;;;;;;;3.23;2.20;;;23.10;83.80;;;;;;4935767;28;20039;-80
2023/04/27 11:10:45;;;;;;;4.13;2.47;;;23.20;79.10;;;;;;4915476;28;20061;-79
2023/04/27 11:13:13;;;;;;;4.97;2.78;;;23.20;79.90;;;;;;4949601;28;20027;-83
2023/04/27 11:15:53;;;;;;;4.03;2.80;;;23.20;82.80;;;;;;4944655;28;20348;-81
2023/04/27 11:18:21;;;;;;;5.22;3.00;;;23.20;79.30;;;;;;4948021;28;20039;-85
2023/04/27 11:20:49;;;;;;;4.20;2.90;;;23.20;82.70;;;;;;4944367;28;20034;-81
2023/04/27 11:23:30;;;;;;;5.15;2.50;;;23.20;82.20;;;;;;4934014;28;20051;-82
2023/04/27 11:25:57;;;;;;;4.18;2.75;;;23.20;77.00;;;;;;4935344;28;20057;-81
2023/04/27 11:28:23;;;;;;;5.32;2.90;;;23.10;83.30;;;;;;4937023;28;20485;-81
2023/04/27 11:30:56;;;;;;;4.57;2.70;;;23.20;81.50;;;;;;4937063;28;20023;-80
2023/04/27 11:33:21;;;;;;;4.53;2.77;;;23.10;77.50;;;;;;4922123;28;20312;-80
2023/04/27 11:35:47;;;;;;;4.25;3.35;;;23.10;81.40;;;;;;4941183;28;20027;-80
2023/04/27 11:38:18;;;;;;;3.50;2.60;;;23.10;80.90;;;;;;4929486;28;20378;-81
2023/04/27 11:40:46;;;;;;;4.43;2.53;;;23.10;77.70;;;;;;4940737;28;20030;-81
2023/04/27 11:43:14;;;;;;;3.97;2.80;;;23.10;81.40;;;;;;4935646;28;20109;-85
2023/04/27 11:45:43;;;;;;;5.65;3.03;;;23.30;80.40;;;;;;4936666;28;20027;-81
2023/04/27 11:48:14;;;;;;;5.07;2.90;;;23.40;80.20;;;;;;4927815;28;20026;-81
2023/04/27 11:50:50;;;;;;;4.22;3.05;;;23.60;79.40;;;;;;4933429;28;20031;-79
2023/04/27 11:53:15;;;;;;;4.40;2.85;;;23.80;83.00;;;;;;4937550;28;20443;-81
2023/04/27 11:55:42;;;;;;;4.77;2.87;;;24.00;83.60;;;;;;4947783;28;20103;-81
2023/04/27 11:58:15;;;;;;;3.67;2.70;;;24.30;83.30;;;;;;4931021;28;20026;-82
2023/04/27 12:00:41;;;;;;;4.07;2.80;;;24.60;79.40;;;;;;4950530;28;20465;-81
2023/04/27 12:03:07;;;;;;;4.03;2.80;;;24.80;83.30;;;;;;4931513;28;20466;-82
2023/04/27 12:05:33;;;;;;;3.53;2.47;;;25.00;82.60;;;;;;4947244;28;20038;-80
2023/04/27 12:07:59;;;;;;;3.40;2.58;;;25.30;83.10;;;;;;4912626;28;20856;-80
2023/04/27 12:10:25;;;;;;;4.63;2.60;;;25.40;81.00;;;;;;4943961;28;20143;-81
2023/04/27 12:12:51;;;;;;;3.08;2.28;;;25.50;81.40;;;;;;4917400;28;20039;-81
2023/04/27 12:15:16;;;;;;;4.20;2.20;;;25.70;81.30;;;;;;4931217;28;20556;-83
2023/04/27 12:17:42;;;;;;;3.50;2.60;;;26.00;83.10;;;;;;4953460;28;20555;-80
2023/04/27 12:20:08;;;;;;;4.43;2.50;;;26.20;82.10;;;;;;4945846;28;20034;-83
2023/04/27 12:22:34;;;;;;;4.13;2.85;;;26.40;80.60;;;;;;4948479;28;20158;-81
2023/04/27 12:25:00;;;;;;;3.00;2.50;;;26.50;78.30;;;;;;4921746;28;20035;-82
2023/04/27 12:27:26;;;;;;;3.88;2.65;;;26.50;79.30;;;;;;4943018;28;20305;-82
2023/04/27 12:29:58;;;;;;;3.90;2.20;;;26.60;78.80;;;;;;4933722;28;20023;-81
2023/04/27 12:32:23;;;;;;;3.55;2.60;;;26.60;78.90;;;;;;4934511;28;20018;-79
2023/04/27 12:34:49;;;;;;;3.55;2.53;;;26.80;77.10;;;;;;4938471;28;20030;-81
2023/04/27 12:37:15;;;;;;;3.37;2.70;;;26.90;76.90;;;;;;4947478;28;20029;-83
2023/04/27 12:39:41;;;;;;;3.58;2.80;;;26.90;76.60;;;;;;4909985;28;20026;-80
2023/04/27 12:42:07;;;;;;;2.80;2.27;;;27.00;76.50;;;;;;4932460;28;20031;-82
2023/04/27 12:44:32;;;;;;;3.05;2.40;;;27.00;75.40;;;;;;4919408;28;20617;-81
2023/04/27 12:46:58;;;;;;;2.92;2.10;;;26.90;73.50;;;;;;4935132;28;20023;-81
2023/04/27 12:49:24;;;;;;;3.57;2.30;;;26.90;73.70;;;;;;4934501;28;20359;-81
2023/04/27 12:51:51;;;;;;;2.85;2.28;;;26.90;74.00;;;;;;4925952;28;20695;-81